createdAt,value
2019-02-19T00:05:02.387Z,31.43
2019-02-19T00:10:04.757Z,28.43
2019-02-19T00:15:08.479Z,29.93
2019-02-19T00:20:11.034Z,31.13
2019-02-19T00:25:13.073Z,31.03
2019-02-19T00:30:15.069Z,25.37
2019-02-19T00:35:17.394Z,27.60
2019-02-19T00:40:19.673Z,34.10
2019-02-19T00:45:21.970Z,28.93
2019-02-19T00:50:23.889Z,28.83
2019-02-19T00:55:25.731Z,27.93
2019-02-19T01:00:27.703Z,28.97
2019-02-19T01:05:29.644Z,29.43
2019-02-19T01:10:32.594Z,30.07
2019-02-19T01:15:34.933Z,24.33
2019-02-19T01:20:36.872Z,26.03
2019-02-19T01:25:38.750Z,26.97
2019-02-19T01:30:40.706Z,27.40
2019-02-19T01:35:42.656Z,27.80
2019-02-19T01:40:44.557Z,28.63
2019-02-19T01:45:46.536Z,24.23
2019-02-19T01:50:48.984Z,26.83
2019-02-19T01:55:51.405Z,22.83
2019-02-19T02:00:53.474Z,26.40
2019-02-19T02:05:55.479Z,25.50
2019-02-19T02:10:58.325Z,26.13
2019-02-19T02:16:00.235Z,25.67
2019-02-19T02:21:02.601Z,25.90
2019-02-19T02:26:04.489Z,26.47
2019-02-19T02:31:06.645Z,26.77
2019-02-19T02:36:09.543Z,25.10
2019-02-19T02:41:11.513Z,23.30
2019-02-19T02:46:14.061Z,23.43
2019-02-19T02:51:16.636Z,23.93
2019-02-19T02:56:18.642Z,24.43
2019-02-19T03:01:21.230Z,28.03
2019-02-19T03:06:32.717Z,24.77
2019-02-19T03:11:34.929Z,22.87
2019-02-19T03:16:36.752Z,23.90
2019-02-19T03:21:39.204Z,26.93
2019-02-19T03:26:41.016Z,23.47
2019-02-19T03:31:42.841Z,26.30
2019-02-19T03:36:44.773Z,22.67
2019-02-19T03:41:46.724Z,25.13
2019-02-19T03:46:48.624Z,23.60
2019-02-19T03:51:50.754Z,24.23
2019-02-19T03:56:52.935Z,23.57
2019-02-19T04:01:54.940Z,23.27
2019-02-19T04:06:57.656Z,22.10
2019-02-19T04:11:59.905Z,24.73
2019-02-19T04:17:01.889Z,22.33
2019-02-19T04:22:03.828Z,25.43
2019-02-19T04:27:05.868Z,21.60
2019-02-19T04:32:07.716Z,23.80
2019-02-19T04:37:10.517Z,23.13
2019-02-19T04:42:13.003Z,22.13
2019-02-19T04:47:15.364Z,22.40
2019-02-19T04:52:17.382Z,25.00
2019-02-19T04:57:19.640Z,25.13
2019-02-19T05:02:21.505Z,23.83
2019-02-19T05:07:23.461Z,26.27
2019-02-19T05:12:25.997Z,24.03
2019-02-19T05:17:27.865Z,24.13
2019-02-19T05:22:30.245Z,25.80
2019-02-19T05:27:32.022Z,26.53
2019-02-19T05:32:34.338Z,23.27
2019-02-19T05:37:36.324Z,23.73
2019-02-19T05:42:38.305Z,24.03
2019-02-19T05:47:40.778Z,21.10
2019-02-19T05:52:42.728Z,26.20
2019-02-19T05:57:44.701Z,22.13
2019-02-19T06:02:46.630Z,23.07
2019-02-19T06:07:49.212Z,23.97
2019-02-19T06:12:51.776Z,29.90
2019-02-19T06:17:53.759Z,22.03
2019-02-19T06:22:55.733Z,25.33
2019-02-19T06:27:59.164Z,23.63
2019-02-19T06:33:01.272Z,22.40
2019-02-19T06:38:03.446Z,26.20
2019-02-19T06:43:06.024Z,25.10
2019-02-19T06:48:08.235Z,26.07
2019-02-19T06:53:10.309Z,22.00
2019-02-19T06:58:12.718Z,21.27
2019-02-19T07:03:28.482Z,29.13
2019-02-19T07:08:30.872Z,24.30
2019-02-19T07:13:32.780Z,20.43
2019-02-19T07:18:35.258Z,22.33
2019-02-19T07:23:37.209Z,27.00
2019-02-19T07:28:39.148Z,21.67
2019-02-19T07:33:41.149Z,20.30
2019-02-19T07:38:43.102Z,21.43
2019-02-19T07:43:44.935Z,23.57
2019-02-19T07:48:46.748Z,31.80
2019-02-19T07:53:48.674Z,25.13
2019-02-19T07:58:51.556Z,21.40
2019-02-19T08:03:54.088Z,23.03
2019-02-19T08:08:56.878Z,23.30
2019-02-19T08:13:59.147Z,21.43
2019-02-19T08:19:01.344Z,22.07
2019-02-19T08:24:03.265Z,18.03
2019-02-19T08:29:13.487Z,20.63
2019-02-19T08:34:10.125Z,26.53
2019-02-19T08:39:12.045Z,21.13
2019-02-19T08:44:14.456Z,28.17
2019-02-19T08:49:16.585Z,20.73
2019-02-19T08:54:19.272Z,20.03
2019-02-19T08:59:21.567Z,26.03
2019-02-19T09:04:23.796Z,23.23
2019-02-19T09:09:26.761Z,24.87
2019-02-19T09:14:29.524Z,23.13
2019-02-19T09:19:31.703Z,23.07
2019-02-19T09:24:34.140Z,28.03
2019-02-19T09:29:36.619Z,26.70
2019-02-19T09:34:38.480Z,28.57
2019-02-19T09:39:40.343Z,24.27
2019-02-19T09:44:42.504Z,26.77
2019-02-19T09:49:45.129Z,24.43
2019-02-19T09:54:47.027Z,31.73
2019-02-19T09:59:49.565Z,29.57
2019-02-19T10:04:51.940Z,33.17
2019-02-19T10:09:53.906Z,28.27
2019-02-19T10:14:55.912Z,33.00
2019-02-19T10:19:58.182Z,35.60
2019-02-19T10:25:00.660Z,32.80
2019-02-19T10:30:03.977Z,36.43
2019-02-19T10:35:09.207Z,33.33
2019-02-19T10:40:12.874Z,34.37
2019-02-19T10:45:16.336Z,32.50
2019-02-19T10:50:20.386Z,31.53
2019-02-19T10:55:22.852Z,27.57
2019-02-19T11:00:25.131Z,26.47
2019-02-19T11:05:27.071Z,27.27
2019-02-19T11:10:28.976Z,26.33
2019-02-19T11:15:31.136Z,30.67
2019-02-19T11:20:33.381Z,26.50
2019-02-19T11:25:35.865Z,25.33
2019-02-19T11:30:39.927Z,28.73
2019-02-19T11:35:42.213Z,26.43
2019-02-19T11:40:44.269Z,29.53
2019-02-19T11:45:47.505Z,32.50
2019-02-19T11:50:49.723Z,25.10
2019-02-19T11:55:52.604Z,27.60
2019-02-19T12:00:55.695Z,27.73
2019-02-19T12:05:58.816Z,28.70
2019-02-19T12:11:00.901Z,26.17
2019-02-19T12:16:03.009Z,28.40
2019-02-19T12:21:04.875Z,25.77
2019-02-19T12:26:07.853Z,27.47
2019-02-19T12:31:09.789Z,22.07
2019-02-19T12:36:11.700Z,23.23
2019-02-19T12:41:14.602Z,25.57
2019-02-19T12:46:16.783Z,21.67
2019-02-19T12:51:26.274Z,23.27
2019-02-19T12:56:24.144Z,20.57
2019-02-19T13:01:26.208Z,24.03
2019-02-19T13:06:28.440Z,28.93
2019-02-19T13:11:30.267Z,24.10
2019-02-19T13:16:33.556Z,25.70
2019-02-19T13:21:35.596Z,25.60
2019-02-19T13:26:37.540Z,25.73
2019-02-19T13:31:40.027Z,25.53
2019-02-19T13:36:42.763Z,22.40
2019-02-19T13:41:44.693Z,26.80
2019-02-19T13:46:47.226Z,21.57
2019-02-19T13:51:49.423Z,22.40
2019-02-19T13:56:51.635Z,21.33
2019-02-19T14:01:53.771Z,19.63
2019-02-19T14:06:55.953Z,21.40
2019-02-19T14:11:58.645Z,20.73
2019-02-19T14:17:04.632Z,15.33
2019-02-19T14:22:25.024Z,15.03
2019-02-19T14:27:49.552Z,17.87
2019-02-19T14:33:11.249Z,14.77
2019-02-19T14:38:33.004Z,17.43
2019-02-19T14:43:58.370Z,17.83
2019-02-19T14:49:36.851Z,18.13
2019-02-19T14:54:58.123Z,16.37
2019-02-19T15:00:18.543Z,16.90
2019-02-19T15:05:34.745Z,20.63
2019-02-19T15:10:55.377Z,18.07
2019-02-19T15:16:19.997Z,15.33
2019-02-19T15:21:40.580Z,16.13
2019-02-19T15:27:17.512Z,14.40
2019-02-19T15:32:29.816Z,15.77
2019-02-19T15:37:38.765Z,15.30
2019-02-19T15:43:13.076Z,13.60
2019-02-19T15:48:32.453Z,15.93
2019-02-19T15:53:48.898Z,16.87
2019-02-19T15:59:06.388Z,17.93
2019-02-19T16:04:16.260Z,13.53
2019-02-19T16:09:32.121Z,15.80
2019-02-19T16:14:40.489Z,14.17
2019-02-19T16:19:47.205Z,12.27
2019-02-19T16:25:07.580Z,15.07
2019-02-19T16:30:16.859Z,12.70
2019-02-19T16:35:31.099Z,16.50
2019-02-19T16:40:42.757Z,11.43
2019-02-19T16:45:54.141Z,11.37
2019-02-19T16:51:26.215Z,10.97
2019-02-19T16:56:38.113Z,11.60
2019-02-19T17:01:58.560Z,12.93
2019-02-19T17:07:11.440Z,13.00
2019-02-19T17:12:26.900Z,12.17
2019-02-19T17:17:50.087Z,14.43
2019-02-19T17:23:07.308Z,12.20
2019-02-19T17:28:40.871Z,15.57
2019-02-19T17:33:51.063Z,14.40
2019-02-19T17:39:09.064Z,12.63
2019-02-19T17:44:17.623Z,13.50
2019-02-19T17:49:31.881Z,13.20
2019-02-19T17:54:42.944Z,13.00
2019-02-19T17:59:52.965Z,13.10
2019-02-19T18:05:11.645Z,9.97
2019-02-19T18:10:49.914Z,10.73
2019-02-19T18:16:18.120Z,7.60
2019-02-19T18:21:20.295Z,9.40
2019-02-19T18:26:22.225Z,13.03
2019-02-19T18:31:24.777Z,10.27
2019-02-19T18:36:27.284Z,12.93
2019-02-19T18:41:29.502Z,9.83
2019-02-19T18:46:31.444Z,13.27
2019-02-19T18:51:33.629Z,8.10
2019-02-19T18:56:35.510Z,9.67
2019-02-19T19:01:37.509Z,11.97
2019-02-19T19:06:41.850Z,9.13
2019-02-19T19:11:44.842Z,8.53
2019-02-19T19:16:48.012Z,11.07
2019-02-19T19:21:51.127Z,11.60
2019-02-19T19:26:53.420Z,9.10
2019-02-19T19:31:56.242Z,11.20
2019-02-19T19:36:58.333Z,8.13
2019-02-19T19:42:00.505Z,7.53
2019-02-19T19:47:02.960Z,11.43
2019-02-19T19:52:04.779Z,7.50
2019-02-19T19:57:06.941Z,9.30
2019-02-19T20:02:09.311Z,9.23
2019-02-19T20:07:17.526Z,8.50
2019-02-19T20:12:20.026Z,11.90
2019-02-19T20:17:22.509Z,8.03
2019-02-19T20:22:25.013Z,8.53
2019-02-19T20:27:27.507Z,7.27
2019-02-19T20:32:30.221Z,8.83
2019-02-19T20:37:32.126Z,8.03
2019-02-19T20:42:34.485Z,8.97
2019-02-19T20:47:36.981Z,11.37
2019-02-19T20:52:39.454Z,7.67
2019-02-19T20:57:42.264Z,7.83
2019-02-19T21:02:44.556Z,7.30
2019-02-19T21:07:47.871Z,9.33
2019-02-19T21:12:50.173Z,10.07
2019-02-19T21:17:52.946Z,9.03
2019-02-19T21:22:54.864Z,10.30
2019-02-19T21:27:56.801Z,9.30
2019-02-19T21:33:00.025Z,11.60
2019-02-19T21:38:02.516Z,10.67
2019-02-19T21:43:05.402Z,13.07
2019-02-19T21:48:07.347Z,7.87
2019-02-19T21:53:09.653Z,9.70
2019-02-19T21:58:11.604Z,8.23
2019-02-19T22:03:13.936Z,10.93
2019-02-19T22:08:15.805Z,10.50
2019-02-19T22:13:17.868Z,11.13
2019-02-19T22:18:19.984Z,15.97
2019-02-19T22:23:22.572Z,14.77
2019-02-19T22:28:24.845Z,12.07
2019-02-19T22:33:27.012Z,10.90
2019-02-19T22:38:30.156Z,11.90
2019-02-19T22:43:32.106Z,8.77
2019-02-19T22:48:34.299Z,10.47
2019-02-19T22:53:58.756Z,8.40
2019-02-19T22:59:01.061Z,8.83
2019-02-19T23:04:04.108Z,8.17
2019-02-19T23:09:06.271Z,11.03
2019-02-19T23:14:09.717Z,9.80
2019-02-19T23:19:12.497Z,7.70
2019-02-19T23:24:14.447Z,11.20
2019-02-19T23:29:16.863Z,9.87
2019-02-19T23:34:18.925Z,12.40
2019-02-19T23:39:20.857Z,10.10
2019-02-19T23:44:22.831Z,12.23
2019-02-19T23:49:24.664Z,10.13
2019-02-19T23:54:26.505Z,10.97
2019-02-19T23:59:28.757Z,10.13
